Time,TemperatureF,DewpointF,PressureIn,WindDirection,WindDirectionDegrees,WindSpeedMPH,WindSpeedGustMPH,Humidity,HourlyPrecipIn,Conditions,Clouds,dailyrainin,SoftwareType,DateUTC
2013-03-24 00:01:00,51.1,48.9,29.77,NNW,348,4.0,8.0,92,0.00,,,0.00,WeatherCatV1.02B3,2013-03-24 05:01:00,
2013-03-24 00:06:00,50.9,48.7,29.77,NNE,12,6.0,9.0,92,0.00,,,0.00,WeatherCatV1.02B3,2013-03-24 05:06:00,
2013-03-24 00:11:00,50.8,48.6,29.77,NNW,347,11.0,16.0,92,0.00,,,0.00,WeatherCatV1.02B3,2013-03-24 05:11:00,
2013-03-24 00:16:00,50.6,48.4,29.72,North,350,8.0,19.0,92,0.00,,,0.01,WeatherCatV1.02B3,2013-03-24 05:16:00,
2013-03-24 00:21:00,50.4,48.2,29.72,NNE,26,5.0,20.0,92,0.00,,,0.01,WeatherCatV1.02B3,2013-03-24 05:21:00,
2013-03-24 00:26:00,50.3,48.4,29.72,North,350,5.0,16.0,93,0.00,,,0.01,WeatherCatV1.02B3,2013-03-24 05:26:00,
2013-03-24 00:31:00,50.3,48.1,29.74,North,9,10.0,12.0,92,0.00,,,0.01,WeatherCatV1.02B3,2013-03-24 05:31:00,
2013-03-24 00:36:00,50.2,48.0,29.74,North,10,4.0,14.0,92,0.00,,,0.01,WeatherCatV1.02B3,2013-03-24 05:36:00,
2013-03-24 00:41:00,50.2,48.0,29.74,North,11,10.0,13.0,92,0.00,,,0.01,WeatherCatV1.02B3,2013-03-24 05:41:00,
2013-03-24 00:46:00,50.1,47.6,29.77,NNE,20,2.0,13.0,91,0.00,,,0.01,WeatherCatV1.02B3,2013-03-24 05:46:00,
2013-03-24 00:51:00,50.1,47.6,29.77,North,0,11.0,18.0,91,0.00,,,0.01,WeatherCatV1.02B3,2013-03-24 05:51:00,
2013-03-24 00:56:00,50.0,47.2,29.77,NNW,339,4.0,13.0,90,0.00,,,0.01,WeatherCatV1.02B3,2013-03-24 05:56:00,
2013-03-24 01:01:00,49.8,46.7,29.77,NNW,342,2.0,13.0,89,0.00,,,0.01,WeatherCatV1.02B3,2013-03-24 06:01:00,
2013-03-24 01:06:00,49.7,46.6,29.77,North,355,6.0,18.0,89,0.00,,,0.01,WeatherCatV1.02B3,2013-03-24 06:06:00,
2013-03-24 01:11:00,49.5,46.4,29.77,NNW,333,6.0,14.0,89,0.00,,,0.01,WeatherCatV1.02B3,2013-03-24 06:11:00,
2013-03-24 01:16:00,49.5,46.4,29.77,NNE,27,4.0,9.0,89,0.00,,,0.01,WeatherCatV1.02B3,2013-03-24 06:16:00,
2013-03-24 01:21:00,49.4,46.3,29.77,NNW,333,7.0,12.0,89,0.00,,,0.01,WeatherCatV1.02B3,2013-03-24 06:21:00,
2013-03-24 01:26:00,49.4,46.3,29.77,NNW,338,7.0,14.0,89,0.00,,,0.01,WeatherCatV1.02B3,2013-03-24 06:26:00,
2013-03-24 01:31:00,49.3,45.9,29.78,North,355,9.0,15.0,88,0.00,,,0.01,WeatherCatV1.02B3,2013-03-24 06:31:00,
2013-03-24 01:36:00,49.2,45.5,29.78,NNW,342,5.0,10.0,87,0.00,,,0.01,WeatherCatV1.02B3,2013-03-24 06:36:00,
2013-03-24 01:41:00,49.1,45.4,29.78,NNE,17,2.0,13.0,87,0.00,,,0.01,WeatherCatV1.02B3,2013-03-24 06:41:00,
2013-03-24 01:46:00,49.0,45.3,29.80,NNW,336,5.0,13.0,87,0.00,,,0.01,WeatherCatV1.02B3,2013-03-24 06:46:00,
2013-03-24 01:51:00,49.0,45.3,29.80,North,0,4.0,11.0,87,0.00,,,0.01,WeatherCatV1.02B3,2013-03-24 06:51:00,
2013-03-24 01:56:00,48.5,44.8,29.80,NNW,340,6.0,20.0,87,0.30,,,0.03,WeatherCatV1.02B3,2013-03-24 06:56:00,
2013-03-24 02:01:00,47.9,44.5,29.80,NNW,344,7.0,13.0,88,0.09,,,0.04,WeatherCatV1.02B3,2013-03-24 07:01:00,
2013-03-24 02:06:00,47.5,44.4,29.80,North,5,5.0,12.0,89,0.09,,,0.04,WeatherCatV1.02B3,2013-03-24 07:06:00,
2013-03-24 02:11:00,47.3,44.2,29.80,North,355,5.0,13.0,89,0.06,,,0.04,WeatherCatV1.02B3,2013-03-24 07:11:00,
2013-03-24 02:16:00,47.2,44.4,29.80,NNW,335,6.0,11.0,90,0.04,,,0.04,WeatherCatV1.02B3,2013-03-24 07:16:00,
2013-03-24 02:21:00,47.2,44.7,29.80,NNE,12,9.0,10.0,91,0.00,,,0.04,WeatherCatV1.02B3,2013-03-24 07:21:00,
2013-03-24 02:26:00,47.1,44.6,29.80,NNW,345,9.0,14.0,91,0.00,,,0.04,WeatherCatV1.02B3,2013-03-24 07:26:00,
2013-03-24 02:31:00,47.0,44.2,29.80,North,0,6.0,12.0,90,0.00,,,0.04,WeatherCatV1.02B3,2013-03-24 07:31:00,
2013-03-24 02:36:00,46.9,44.1,29.80,NNW,337,3.0,9.0,90,0.00,,,0.04,WeatherCatV1.02B3,2013-03-24 07:36:00,
2013-03-24 02:41:00,46.8,43.7,29.80,NNE,28,9.0,11.0,89,0.00,,,0.04,WeatherCatV1.02B3,2013-03-24 07:41:00,
2013-03-24 02:46:00,46.5,43.1,29.80,North,355,3.0,14.0,88,0.00,,,0.04,WeatherCatV1.02B3,2013-03-24 07:46:00,
2013-03-24 02:51:00,46.3,42.9,29.80,North,355,5.0,13.0,88,0.00,,,0.04,WeatherCatV1.02B3,2013-03-24 07:51:00,
2013-03-24 02:56:00,46.1,42.7,29.80,NW,316,10.0,16.0,88,0.00,,,0.04,WeatherCatV1.02B3,2013-03-24 07:56:00,
2013-03-24 03:01:00,45.9,42.3,29.82,North,355,13.0,16.0,87,0.00,,,0.05,WeatherCatV1.02B3,2013-03-24 08:01:00,
2013-03-24 03:06:00,45.8,42.2,29.82,NNW,336,9.0,12.0,87,0.00,,,0.05,WeatherCatV1.02B3,2013-03-24 08:06:00,
2013-03-24 03:11:00,45.8,42.2,29.82,NW,313,9.0,13.0,87,0.00,,,0.05,WeatherCatV1.02B3,2013-03-24 08:11:00,
2013-03-24 03:16:00,45.6,42.0,29.83,NW,317,13.0,20.0,87,0.00,,,0.05,WeatherCatV1.02B3,2013-03-24 08:16:00,
2013-03-24 03:21:00,45.3,42.0,29.83,NNW,333,4.0,11.0,88,0.00,,,0.05,WeatherCatV1.02B3,2013-03-24 08:21:00,
2013-03-24 03:26:00,45.1,41.5,29.83,NNW,338,5.0,19.0,87,0.00,,,0.05,WeatherCatV1.02B3,2013-03-24 08:26:00,
2013-03-24 03:31:00,44.7,40.8,29.83,NW,319,7.0,19.0,86,0.00,,,0.05,WeatherCatV1.02B3,2013-03-24 08:31:00,
2013-03-24 03:36:00,44.5,40.3,29.83,NNW,338,13.0,19.0,85,0.00,,,0.05,WeatherCatV1.02B3,2013-03-24 08:36:00,
2013-03-24 03:41:00,44.3,40.4,29.83,North,10,4.0,14.0,86,0.00,,,0.05,WeatherCatV1.02B3,2013-03-24 08:41:00,
2013-03-24 03:46:00,44.3,40.1,29.84,NNE,22,6.0,18.0,85,0.00,,,0.05,WeatherCatV1.02B3,2013-03-24 08:46:00,
2013-03-24 03:51:00,44.1,39.3,29.84,NNW,338,3.0,16.0,83,0.00,,,0.05,WeatherCatV1.02B3,2013-03-24 08:51:00,
2013-03-24 03:56:00,44.0,39.2,29.84,North,351,13.0,15.0,83,0.00,,,0.05,WeatherCatV1.02B3,2013-03-24 08:56:00,
2013-03-24 04:01:00,43.8,39.0,29.85,North,0,6.0,15.0,83,0.00,,,0.05,WeatherCatV1.02B3,2013-03-24 09:01:00,
2013-03-24 04:06:00,43.7,38.9,29.85,NE,38,3.0,18.0,83,0.00,,,0.05,WeatherCatV1.02B3,2013-03-24 09:06:00,
2013-03-24 04:11:00,43.7,38.6,29.85,North,5,5.0,16.0,82,0.00,,,0.05,WeatherCatV1.02B3,2013-03-24 09:11:00,
2013-03-24 04:16:00,43.6,38.5,29.85,North,355,10.0,14.0,82,0.00,,,0.05,WeatherCatV1.02B3,2013-03-24 09:16:00,
2013-03-24 04:21:00,43.5,38.4,29.85,NNW,336,5.0,18.0,82,0.00,,,0.05,WeatherCatV1.02B3,2013-03-24 09:21:00,
2013-03-24 04:26:00,43.4,38.0,29.85,NNW,327,10.0,18.0,81,0.00,,,0.05,WeatherCatV1.02B3,2013-03-24 09:26:00,
2013-03-24 04:31:00,43.3,37.6,29.87,NW,312,12.0,18.0,80,0.00,,,0.05,WeatherCatV1.02B3,2013-03-24 09:31:00,
2013-03-24 04:36:00,43.2,37.5,29.87,North,0,3.0,17.0,80,0.00,,,0.05,WeatherCatV1.02B3,2013-03-24 09:36:00,
2013-03-24 04:41:00,43.1,37.4,29.87,North,0,4.0,17.0,80,0.00,,,0.05,WeatherCatV1.02B3,2013-03-24 09:41:00,
2013-03-24 04:46:00,43.0,36.9,29.87,NNW,333,13.0,18.0,79,0.00,,,0.05,WeatherCatV1.02B3,2013-03-24 09:46:00,
2013-03-24 04:51:00,42.8,36.1,29.87,NNW,346,15.0,19.0,77,0.00,,,0.05,WeatherCatV1.02B3,2013-03-24 09:51:00,
2013-03-24 04:56:00,42.7,36.6,29.87,NNW,340,11.0,13.0,79,0.00,,,0.05,WeatherCatV1.02B3,2013-03-24 09:56:00,
2013-03-24 05:01:00,42.7,37.0,29.88,NNW,327,12.0,12.0,80,0.00,,,0.05,WeatherCatV1.02B3,2013-03-24 10:01:00,
2013-03-24 05:06:00,42.6,36.9,29.88,NNW,333,5.0,14.0,80,0.00,,,0.05,WeatherCatV1.02B3,2013-03-24 10:06:00,
2013-03-24 05:11:00,42.6,36.2,29.88,NNE,14,13.0,17.0,78,0.00,,,0.05,WeatherCatV1.02B3,2013-03-24 10:11:00,
2013-03-24 05:16:00,42.5,36.5,29.88,NNW,337,14.0,20.0,79,0.00,,,0.05,WeatherCatV1.02B3,2013-03-24 10:16:00,
2013-03-24 05:21:00,42.5,36.5,29.88,NW,315,7.0,14.0,79,0.00,,,0.05,WeatherCatV1.02B3,2013-03-24 10:21:00,
2013-03-24 05:26:00,42.5,36.5,29.88,NE,39,16.0,16.0,79,0.00,,,0.05,WeatherCatV1.02B3,2013-03-24 10:26:00,
2013-03-24 05:31:00,42.5,36.5,29.89,North,355,11.0,20.0,79,0.00,,,0.05,WeatherCatV1.02B3,2013-03-24 10:31:00,
2013-03-24 05:36:00,42.4,35.4,29.89,NNW,344,9.0,20.0,76,0.00,,,0.05,WeatherCatV1.02B3,2013-03-24 10:36:00,
2013-03-24 05:41:00,42.3,35.0,29.89,NNW,327,7.0,12.0,75,0.00,,,0.05,WeatherCatV1.02B3,2013-03-24 10:41:00,
2013-03-24 05:46:00,42.2,34.2,29.90,NW,310,12.0,16.0,73,0.00,,,0.05,WeatherCatV1.02B3,2013-03-24 10:46:00,
2013-03-24 05:51:00,41.9,33.9,29.90,NW,325,13.0,16.0,73,0.00,,,0.05,WeatherCatV1.02B3,2013-03-24 10:51:00,
2013-03-24 05:56:00,41.6,33.9,29.90,North,355,5.0,16.0,74,0.00,,,0.05,WeatherCatV1.02B3,2013-03-24 10:56:00,
2013-03-24 06:01:00,41.6,34.3,29.90,NNW,327,0.0,12.0,75,0.00,,,0.05,WeatherCatV1.02B3,2013-03-24 11:01:00,
2013-03-24 06:06:00,41.6,34.6,29.90,North,355,6.0,14.0,76,0.00,,,0.05,WeatherCatV1.02B3,2013-03-24 11:06:00,
2013-03-24 06:11:00,41.6,34.3,29.90,NNW,327,10.0,14.0,75,0.00,,,0.05,WeatherCatV1.02B3,2013-03-24 11:11:00,
2013-03-24 06:16:00,41.5,34.2,29.91,North,355,4.0,14.0,75,0.00,,,0.05,WeatherCatV1.02B3,2013-03-24 11:16:00,
2013-03-24 06:21:00,41.5,34.2,29.91,North,5,4.0,13.0,75,0.00,,,0.05,WeatherCatV1.02B3,2013-03-24 11:21:00,
2013-03-24 06:26:00,41.5,34.5,29.91,NNW,346,4.0,11.0,76,0.00,,,0.05,WeatherCatV1.02B3,2013-03-24 11:26:00,
2013-03-24 06:31:00,41.6,34.3,29.91,NNW,335,11.0,12.0,75,0.00,,,0.05,WeatherCatV1.02B3,2013-03-24 11:31:00,
2013-03-24 06:36:00,41.4,32.7,29.91,North,5,5.0,13.0,71,0.00,,,0.05,WeatherCatV1.02B3,2013-03-24 11:36:00,
2013-03-24 06:41:00,41.1,33.1,29.91,NNE,15,6.0,15.0,73,0.00,,,0.05,WeatherCatV1.02B3,2013-03-24 11:41:00,
2013-03-24 06:46:00,41.0,33.4,29.91,NNW,333,13.0,13.0,74,0.00,,,0.05,WeatherCatV1.02B3,2013-03-24 11:46:00,
2013-03-24 06:51:00,40.9,32.9,29.91,WNW,282,2.0,2.0,73,0.00,,,0.05,WeatherCatV1.02B3,2013-03-24 11:51:00,
2013-03-24 06:56:00,40.9,33.3,29.91,North,355,7.0,7.0,74,0.00,,,0.05,WeatherCatV1.02B3,2013-03-24 11:56:00,
2013-03-24 07:01:00,40.9,32.9,29.93,North,355,3.0,13.0,73,0.00,,,0.05,WeatherCatV1.02B3,2013-03-24 12:01:00,
2013-03-24 07:06:00,40.9,33.3,29.93,North,0,13.0,17.0,74,0.00,,,0.05,WeatherCatV1.02B3,2013-03-24 12:06:00,
2013-03-24 07:11:00,40.9,32.9,29.93,North,355,16.0,22.0,73,0.00,,,0.05,WeatherCatV1.02B3,2013-03-24 12:11:00,
2013-03-24 07:16:00,40.7,33.1,29.94,North,350,5.0,13.0,74,0.00,,,0.05,WeatherCatV1.02B3,2013-03-24 12:16:00,
2013-03-24 07:21:00,40.7,33.1,29.94,NW,314,4.0,15.0,74,0.00,,,0.05,WeatherCatV1.02B3,2013-03-24 12:21:00,
2013-03-24 07:26:00,40.6,33.0,29.94,NNW,342,10.0,15.0,74,0.00,,,0.05,WeatherCatV1.02B3,2013-03-24 12:26:00,
2013-03-24 07:31:00,40.6,33.0,29.94,NW,323,7.0,10.0,74,0.00,,,0.05,WeatherCatV1.02B3,2013-03-24 12:31:00,
2013-03-24 07:36:00,40.7,32.7,29.94,NNW,346,6.0,16.0,73,0.00,,,0.05,WeatherCatV1.02B3,2013-03-24 12:36:00,
2013-03-24 07:41:00,40.6,32.3,29.94,North,355,2.0,17.0,72,0.00,,,0.05,WeatherCatV1.02B3,2013-03-24 12:41:00,
2013-03-24 07:46:00,40.6,32.3,29.96,NW,319,11.0,14.0,72,0.00,,,0.05,WeatherCatV1.02B3,2013-03-24 12:46:00,
2013-03-24 07:51:00,40.6,32.3,29.96,NW,317,5.0,17.0,72,0.00,,,0.05,WeatherCatV1.02B3,2013-03-24 12:51:00,
2013-03-24 07:56:00,40.6,31.9,29.96,NNW,336,1.0,16.0,71,0.00,,,0.05,WeatherCatV1.02B3,2013-03-24 12:56:00,
2013-03-24 08:01:00,40.7,32.0,29.96,North,5,9.0,15.0,71,0.00,,,0.05,WeatherCatV1.02B3,2013-03-24 13:01:00,
2013-03-24 08:06:00,40.7,32.4,29.96,NNW,348,4.0,13.0,72,0.00,,,0.05,WeatherCatV1.02B3,2013-03-24 13:06:00,
2013-03-24 08:11:00,40.7,32.0,29.96,North,0,6.0,11.0,71,0.00,,,0.05,WeatherCatV1.02B3,2013-03-24 13:11:00,
2013-03-24 08:16:00,40.7,32.0,29.98,North,350,12.0,16.0,71,0.00,,,0.05,WeatherCatV1.02B3,2013-03-24 13:16:00,
2013-03-24 08:21:00,40.7,32.0,29.98,North,355,4.0,16.0,71,0.00,,,0.05,WeatherCatV1.02B3,2013-03-24 13:21:00,
2013-03-24 08:26:00,40.7,31.7,29.98,North,5,3.0,18.0,70,0.00,,,0.05,WeatherCatV1.02B3,2013-03-24 13:26:00,
2013-03-24 08:31:00,40.7,32.4,29.99,NW,321,4.0,15.0,72,0.00,,,0.05,WeatherCatV1.02B3,2013-03-24 13:31:00,
2013-03-24 08:36:00,40.7,32.4,29.99,NNW,346,5.0,15.0,72,0.00,,,0.05,WeatherCatV1.02B3,2013-03-24 13:36:00,
2013-03-24 08:41:00,40.8,32.8,29.99,NNW,346,11.0,12.0,73,0.00,,,0.05,WeatherCatV1.02B3,2013-03-24 13:41:00,
2013-03-24 08:46:00,40.7,32.0,29.99,NW,304,5.0,19.0,71,0.00,,,0.05,WeatherCatV1.02B3,2013-03-24 13:46:00,
2013-03-24 08:51:00,40.6,32.3,29.99,North,351,2.0,14.0,72,0.00,,,0.05,WeatherCatV1.02B3,2013-03-24 13:51:00,
2013-03-24 08:56:00,40.7,32.4,29.99,WNW,284,10.0,18.0,72,0.00,,,0.05,WeatherCatV1.02B3,2013-03-24 13:56:00,
2013-03-24 09:01:00,40.8,32.5,30.00,WNW,299,11.0,12.0,72,0.00,,,0.05,WeatherCatV1.02B3,2013-03-24 14:01:00,
2013-03-24 09:06:00,40.8,32.5,30.00,NNE,19,6.0,12.0,72,0.00,,,0.05,WeatherCatV1.02B3,2013-03-24 14:06:00,
2013-03-24 09:11:00,40.9,31.9,30.00,NW,321,12.0,12.0,70,0.00,,,0.05,WeatherCatV1.02B3,2013-03-24 14:11:00,
2013-03-24 09:16:00,41.0,32.3,30.01,NNW,331,7.0,11.0,71,0.00,,,0.05,WeatherCatV1.02B3,2013-03-24 14:16:00,
2013-03-24 09:21:00,41.2,32.5,30.01,NNW,327,15.0,15.0,71,0.00,,,0.05,WeatherCatV1.02B3,2013-03-24 14:21:00,
2013-03-24 09:26:00,41.1,31.0,30.01,NW,319,12.0,13.0,67,0.00,,,0.05,WeatherCatV1.02B3,2013-03-24 14:26:00,
2013-03-24 09:31:00,41.0,31.6,30.02,NW,322,6.0,10.0,69,0.00,,,0.05,WeatherCatV1.02B3,2013-03-24 14:31:00,
2013-03-24 09:36:00,41.0,31.6,30.02,NNE,29,4.0,16.0,69,0.00,,,0.05,WeatherCatV1.02B3,2013-03-24 14:36:00,
2013-03-24 09:41:00,41.1,31.7,30.02,NNW,344,5.0,18.0,69,0.00,,,0.05,WeatherCatV1.02B3,2013-03-24 14:41:00,
2013-03-24 09:46:00,41.2,31.5,30.02,NW,306,4.0,16.0,68,0.00,,,0.05,WeatherCatV1.02B3,2013-03-24 14:46:00,
2013-03-24 09:51:00,41.2,32.2,30.02,North,355,4.0,14.0,70,0.00,,,0.05,WeatherCatV1.02B3,2013-03-24 14:51:00,
2013-03-24 09:56:00,41.1,32.1,30.02,NNE,13,5.0,17.0,70,0.00,,,0.05,WeatherCatV1.02B3,2013-03-24 14:56:00,
2013-03-24 10:01:00,41.0,32.3,30.03,North,5,5.0,15.0,71,0.00,,,0.05,WeatherCatV1.02B3,2013-03-24 15:01:00,
2013-03-24 10:06:00,41.1,32.4,30.03,NNW,327,5.0,15.0,71,0.00,,,0.05,WeatherCatV1.02B3,2013-03-24 15:06:00,
2013-03-24 10:11:00,41.2,31.5,30.03,NW,323,4.0,19.0,68,0.00,,,0.05,WeatherCatV1.02B3,2013-03-24 15:11:00,
2013-03-24 10:16:00,41.3,31.9,30.04,North,5,10.0,11.0,69,0.00,,,0.05,WeatherCatV1.02B3,2013-03-24 15:16:00,
2013-03-24 10:21:00,41.7,31.6,30.04,North,355,8.0,18.0,67,0.00,,,0.05,WeatherCatV1.02B3,2013-03-24 15:21:00,
2013-03-24 10:26:00,41.7,30.8,30.04,North,355,15.0,22.0,65,0.00,,,0.05,WeatherCatV1.02B3,2013-03-24 15:26:00,
2013-03-24 10:31:00,42.4,31.5,30.04,North,355,7.0,19.0,65,0.00,,,0.05,WeatherCatV1.02B3,2013-03-24 15:31:00,
2013-03-24 10:36:00,43.4,31.7,30.04,North,0,7.0,15.0,63,0.00,,,0.05,WeatherCatV1.02B3,2013-03-24 15:36:00,
2013-03-24 10:41:00,44.2,32.8,30.04,SE,146,4.0,12.0,64,0.00,,,0.05,WeatherCatV1.02B3,2013-03-24 15:41:00,
2013-03-24 10:46:00,44.7,31.7,30.04,NNW,344,10.0,17.0,60,0.00,,,0.05,WeatherCatV1.02B3,2013-03-24 15:46:00,
2013-03-24 10:51:00,44.6,30.3,30.04,North,349,7.0,16.0,57,0.00,,,0.05,WeatherCatV1.02B3,2013-03-24 15:51:00,
2013-03-24 10:56:00,45.2,33.0,30.04,North,351,5.0,15.0,62,0.00,,,0.05,WeatherCatV1.02B3,2013-03-24 15:56:00,
2013-03-24 11:01:00,46.7,33.6,30.04,North,355,7.0,17.0,60,0.00,,,0.05,WeatherCatV1.02B3,2013-03-24 16:01:00,
2013-03-24 11:06:00,47.8,33.7,30.04,NW,309,7.0,12.0,58,0.00,,,0.05,WeatherCatV1.02B3,2013-03-24 16:06:00,
2013-03-24 11:11:00,48.8,34.2,30.04,NNE,28,11.0,11.0,57,0.00,,,0.05,WeatherCatV1.02B3,2013-03-24 16:11:00,
2013-03-24 11:16:00,49.7,34.6,30.04,North,0,5.0,12.0,56,0.00,,,0.05,WeatherCatV1.02B3,2013-03-24 16:16:00,
2013-03-24 11:21:00,49.6,34.1,30.04,NNW,336,12.0,12.0,55,0.00,,,0.05,WeatherCatV1.02B3,2013-03-24 16:21:00,
2013-03-24 11:26:00,49.7,31.3,30.04,North,355,4.0,16.0,49,0.00,,,0.05,WeatherCatV1.02B3,2013-03-24 16:26:00,
2013-03-24 11:31:00,49.6,33.6,30.05,NE,35,4.0,12.0,54,0.00,,,0.05,WeatherCatV1.02B3,2013-03-24 16:31:00,
2013-03-24 11:36:00,49.8,32.4,30.05,North,355,9.0,16.0,51,0.00,,,0.05,WeatherCatV1.02B3,2013-03-24 16:36:00,
2013-03-24 11:41:00,49.5,32.1,30.05,NW,319,10.0,21.0,51,0.00,,,0.05,WeatherCatV1.02B3,2013-03-24 16:41:00,
2013-03-24 11:46:00,49.4,32.5,30.05,NW,323,6.0,15.0,52,0.00,,,0.05,WeatherCatV1.02B3,2013-03-24 16:46:00,
2013-03-24 11:51:00,49.5,32.1,30.05,WNW,300,10.0,13.0,51,0.00,,,0.05,WeatherCatV1.02B3,2013-03-24 16:51:00,
2013-03-24 11:56:00,49.7,32.3,30.05,NNW,340,6.0,15.0,51,0.00,,,0.05,WeatherCatV1.02B3,2013-03-24 16:56:00,
2013-03-24 12:01:00,50.0,31.6,30.05,NNE,13,9.0,19.0,49,0.00,,,0.05,WeatherCatV1.02B3,2013-03-24 17:01:00,
2013-03-24 12:06:00,50.2,32.8,30.05,WNW,285,3.0,10.0,51,0.00,,,0.05,WeatherCatV1.02B3,2013-03-24 17:06:00,
2013-03-24 12:11:00,50.3,32.4,30.05,NNW,336,6.0,12.0,50,0.00,,,0.05,WeatherCatV1.02B3,2013-03-24 17:11:00,
2013-03-24 12:16:00,50.1,32.2,30.05,NW,314,10.0,16.0,50,0.00,,,0.05,WeatherCatV1.02B3,2013-03-24 17:16:00,
2013-03-24 12:21:00,50.5,32.1,30.05,North,355,4.0,13.0,49,0.00,,,0.05,WeatherCatV1.02B3,2013-03-24 17:21:00,
2013-03-24 12:26:00,51.0,32.5,30.05,NNW,342,13.0,17.0,49,0.00,,,0.05,WeatherCatV1.02B3,2013-03-24 17:26:00,
2013-03-24 12:31:00,51.4,32.4,30.05,NE,49,5.0,20.0,48,0.00,,,0.05,WeatherCatV1.02B3,2013-03-24 17:31:00,
2013-03-24 12:36:00,51.6,32.0,30.05,NW,304,9.0,18.0,47,0.00,,,0.05,WeatherCatV1.02B3,2013-03-24 17:36:00,
2013-03-24 12:41:00,51.9,32.3,30.05,North,355,6.0,13.0,47,0.00,,,0.05,WeatherCatV1.02B3,2013-03-24 17:41:00,
2013-03-24 12:46:00,52.0,32.4,30.05,North,350,4.0,12.0,47,0.00,,,0.05,WeatherCatV1.02B3,2013-03-24 17:46:00,
2013-03-24 12:51:00,52.5,32.3,30.05,North,0,7.0,12.0,46,0.00,,,0.05,WeatherCatV1.02B3,2013-03-24 17:51:00,
2013-03-24 12:56:00,53.0,33.8,30.05,NNW,346,6.0,22.0,48,0.00,,,0.05,WeatherCatV1.02B3,2013-03-24 17:56:00,
2013-03-24 13:01:00,53.0,32.2,30.04,NNW,346,7.0,15.0,45,0.00,,,0.05,WeatherCatV1.02B3,2013-03-24 18:01:00,
2013-03-24 13:06:00,52.8,31.5,30.04,NNW,340,5.0,17.0,44,0.00,,,0.05,WeatherCatV1.02B3,2013-03-24 18:06:00,
2013-03-24 13:11:00,52.8,32.6,30.04,NNW,334,2.0,13.0,46,0.00,,,0.05,WeatherCatV1.02B3,2013-03-24 18:11:00,
2013-03-24 13:16:00,53.1,32.9,30.04,North,349,6.0,16.0,46,0.00,,,0.05,WeatherCatV1.02B3,2013-03-24 18:16:00,
2013-03-24 13:21:00,53.3,32.5,30.04,NW,311,7.0,19.0,45,0.00,,,0.05,WeatherCatV1.02B3,2013-03-24 18:21:00,
2013-03-24 13:26:00,53.6,32.8,30.04,North,5,6.0,11.0,45,0.00,,,0.05,WeatherCatV1.02B3,2013-03-24 18:26:00,
2013-03-24 13:31:00,54.0,32.0,30.04,North,355,5.0,13.0,43,0.00,,,0.05,WeatherCatV1.02B3,2013-03-24 18:31:00,
2013-03-24 13:36:00,54.3,31.7,30.04,NNW,331,9.0,18.0,42,0.00,,,0.05,WeatherCatV1.02B3,2013-03-24 18:36:00,
2013-03-24 13:41:00,54.2,32.8,30.04,NW,318,6.0,11.0,44,0.00,,,0.05,WeatherCatV1.02B3,2013-03-24 18:41:00,
2013-03-24 13:46:00,54.4,33.5,30.03,NNE,15,9.0,16.0,45,0.00,,,0.05,WeatherCatV1.02B3,2013-03-24 18:46:00,
2013-03-24 13:51:00,55.0,32.9,30.03,NNW,346,1.0,12.0,43,0.00,,,0.05,WeatherCatV1.02B3,2013-03-24 18:51:00,
2013-03-24 13:56:00,54.9,32.8,30.03,NNW,334,1.0,14.0,43,0.00,,,0.05,WeatherCatV1.02B3,2013-03-24 18:56:00,
2013-03-24 14:01:00,54.8,32.7,30.03,North,355,3.0,14.0,43,0.00,,,0.05,WeatherCatV1.02B3,2013-03-24 19:01:00,
2013-03-24 14:06:00,55.0,32.9,30.03,North,0,11.0,12.0,43,0.00,,,0.05,WeatherCatV1.02B3,2013-03-24 19:06:00,
2013-03-24 14:11:00,55.1,32.4,30.03,NNW,342,10.0,15.0,42,0.00,,,0.05,WeatherCatV1.02B3,2013-03-24 19:11:00,
2013-03-24 14:16:00,55.1,33.6,30.03,NNW,347,8.0,15.0,44,0.00,,,0.05,WeatherCatV1.02B3,2013-03-24 19:16:00,
2013-03-24 14:21:00,55.3,33.2,30.03,NNW,345,10.0,17.0,43,0.00,,,0.05,WeatherCatV1.02B3,2013-03-24 19:21:00,
2013-03-24 14:26:00,55.6,32.9,30.03,NW,311,2.0,16.0,42,0.00,,,0.05,WeatherCatV1.02B3,2013-03-24 19:26:00,
2013-03-24 14:31:00,55.4,33.9,30.03,WNW,294,7.0,23.0,44,0.00,,,0.05,WeatherCatV1.02B3,2013-03-24 19:31:00,
2013-03-24 14:36:00,55.4,33.3,30.03,North,355,9.0,9.0,43,0.00,,,0.05,WeatherCatV1.02B3,2013-03-24 19:36:00,
2013-03-24 14:41:00,55.3,32.6,30.03,NNE,14,7.0,12.0,42,0.00,,,0.05,WeatherCatV1.02B3,2013-03-24 19:41:00,
2013-03-24 14:46:00,55.5,33.4,30.02,NE,35,6.0,13.0,43,0.00,,,0.05,WeatherCatV1.02B3,2013-03-24 19:46:00,
2013-03-24 14:51:00,55.6,32.3,30.02,North,355,9.0,14.0,41,0.00,,,0.05,WeatherCatV1.02B3,2013-03-24 19:51:00,
2013-03-24 14:56:00,56.0,32.6,30.02,WNW,300,10.0,15.0,41,0.00,,,0.05,WeatherCatV1.02B3,2013-03-24 19:56:00,
2013-03-24 15:01:00,56.3,32.3,30.02,NNW,337,7.0,14.0,40,0.00,,,0.05,WeatherCatV1.02B3,2013-03-24 20:01:00,
2013-03-24 15:06:00,56.9,34.6,30.02,NNE,31,2.0,14.0,43,0.00,,,0.05,WeatherCatV1.02B3,2013-03-24 20:06:00,
2013-03-24 15:11:00,57.3,33.2,30.02,NW,323,5.0,9.0,40,0.00,,,0.05,WeatherCatV1.02B3,2013-03-24 20:11:00,
2013-03-24 15:16:00,57.2,33.1,30.01,NW,311,4.0,14.0,40,0.00,,,0.05,WeatherCatV1.02B3,2013-03-24 20:16:00,
2013-03-24 15:21:00,57.1,33.0,30.01,NW,306,6.0,19.0,40,0.00,,,0.05,WeatherCatV1.02B3,2013-03-24 20:21:00,
2013-03-24 15:26:00,56.7,32.0,30.01,NNE,17,4.0,14.0,39,0.00,,,0.05,WeatherCatV1.02B3,2013-03-24 20:26:00,
2013-03-24 15:31:00,56.6,33.2,30.00,NNE,27,5.0,12.0,41,0.00,,,0.05,WeatherCatV1.02B3,2013-03-24 20:31:00,
2013-03-24 15:36:00,56.9,32.8,30.00,NNW,336,12.0,12.0,40,0.00,,,0.05,WeatherCatV1.02B3,2013-03-24 20:36:00,
2013-03-24 15:41:00,57.2,33.7,30.00,NNE,17,18.0,18.0,41,0.00,,,0.05,WeatherCatV1.02B3,2013-03-24 20:41:00,
2013-03-24 15:46:00,57.7,34.2,30.00,North,5,7.0,13.0,41,0.00,,,0.05,WeatherCatV1.02B3,2013-03-24 20:46:00,
2013-03-24 15:51:00,58.0,33.8,30.00,NNW,344,6.0,14.0,40,0.00,,,0.05,WeatherCatV1.02B3,2013-03-24 20:51:00,
2013-03-24 15:56:00,57.5,33.4,30.00,NW,309,7.0,17.0,40,0.00,,,0.05,WeatherCatV1.02B3,2013-03-24 20:56:00,
2013-03-24 16:01:00,57.3,31.9,30.01,NNW,331,2.0,5.0,38,0.00,,,0.05,WeatherCatV1.02B3,2013-03-24 21:01:00,
2013-03-24 16:06:00,57.2,31.2,30.01,NNE,21,5.0,11.0,37,0.00,,,0.05,WeatherCatV1.02B3,2013-03-24 21:06:00,
2013-03-24 16:11:00,57.6,32.8,30.01,NW,323,5.0,16.0,39,0.00,,,0.05,WeatherCatV1.02B3,2013-03-24 21:11:00,
2013-03-24 16:16:00,57.8,32.4,30.01,North,5,6.0,14.0,38,0.00,,,0.05,WeatherCatV1.02B3,2013-03-24 21:16:00,
2013-03-24 16:21:00,58.1,33.9,30.01,WNW,300,9.0,9.0,40,0.00,,,0.05,WeatherCatV1.02B3,2013-03-24 21:21:00,
2013-03-24 16:26:00,58.1,33.3,30.01,North,5,6.0,12.0,39,0.00,,,0.05,WeatherCatV1.02B3,2013-03-24 21:26:00,
2013-03-24 16:31:00,58.0,32.5,30.00,NNW,329,6.0,14.0,38,0.00,,,0.05,WeatherCatV1.02B3,2013-03-24 21:31:00,
2013-03-24 16:36:00,57.8,32.4,30.00,North,0,10.0,14.0,38,0.00,,,0.05,WeatherCatV1.02B3,2013-03-24 21:36:00,
2013-03-24 16:41:00,57.7,31.6,30.00,NNE,30,1.0,13.0,37,0.00,,,0.05,WeatherCatV1.02B3,2013-03-24 21:41:00,
2013-03-24 16:46:00,57.9,32.5,30.00,NNW,332,2.0,10.0,38,0.00,,,0.05,WeatherCatV1.02B3,2013-03-24 21:46:00,
2013-03-24 16:51:00,57.9,31.8,30.00,NNW,331,3.0,7.0,37,0.00,,,0.05,WeatherCatV1.02B3,2013-03-24 21:51:00,
2013-03-24 16:56:00,57.7,31.6,30.00,North,9,6.0,15.0,37,0.00,,,0.05,WeatherCatV1.02B3,2013-03-24 21:56:00,
2013-03-24 17:02:00,57.6,31.5,30.00,NNW,336,4.0,4.0,37,0.00,,,0.05,WeatherCatV1.02B3,2013-03-24 22:02:00,
2013-03-24 17:07:00,57.4,32.0,30.00,North,355,14.0,17.0,38,0.00,,,0.05,WeatherCatV1.02B3,2013-03-24 22:07:00,
2013-03-24 17:12:00,57.2,32.5,30.00,NW,305,0.0,6.0,39,0.00,,,0.05,WeatherCatV1.02B3,2013-03-24 22:12:00,
2013-03-24 17:17:00,57.3,31.3,30.00,NNE,26,0.0,15.0,37,0.00,,,0.05,WeatherCatV1.02B3,2013-03-24 22:17:00,
2013-03-24 17:21:00,57.3,31.3,30.00,NNE,26,3.0,7.0,37,0.00,,,0.05,WeatherCatV1.02B3,2013-03-24 22:21:00,
2013-03-24 17:26:00,56.9,30.9,30.00,NNE,18,7.0,11.0,37,0.00,,,0.05,WeatherCatV1.02B3,2013-03-24 22:26:00,
2013-03-24 17:31:00,56.4,31.1,30.00,NNW,340,5.0,11.0,38,0.00,,,0.05,WeatherCatV1.02B3,2013-03-24 22:31:00,
2013-03-24 17:37:00,56.1,30.2,30.00,North,349,7.0,14.0,37,0.00,,,0.05,WeatherCatV1.02B3,2013-03-24 22:37:00,
2013-03-24 17:42:00,55.8,29.9,30.00,NNW,348,2.0,15.0,37,0.00,,,0.05,WeatherCatV1.02B3,2013-03-24 22:42:00,
2013-03-24 17:46:00,55.4,29.6,30.00,NNE,22,2.0,14.0,37,0.00,,,0.05,WeatherCatV1.02B3,2013-03-24 22:46:00,
2013-03-24 17:51:00,55.2,29.4,30.00,North,355,5.0,14.0,37,0.00,,,0.05,WeatherCatV1.02B3,2013-03-24 22:51:00,
2013-03-24 17:56:00,55.0,30.5,30.00,NNW,342,5.0,11.0,39,0.00,,,0.05,WeatherCatV1.02B3,2013-03-24 22:56:00,
2013-03-24 18:01:00,54.7,30.9,30.00,North,355,5.0,9.0,40,0.00,,,0.05,WeatherCatV1.02B3,2013-03-24 23:01:00,
2013-03-24 18:07:00,54.6,30.8,30.00,North,5,9.0,18.0,40,0.00,,,0.05,WeatherCatV1.02B3,2013-03-24 23:07:00,
2013-03-24 18:12:00,54.2,29.2,30.00,NNE,28,10.0,17.0,38,0.00,,,0.05,WeatherCatV1.02B3,2013-03-24 23:12:00,
2013-03-24 18:17:00,53.9,30.1,29.99,North,0,4.0,13.0,40,0.00,,,0.05,WeatherCatV1.02B3,2013-03-24 23:17:00,
2013-03-24 18:22:00,53.7,30.0,29.99,North,5,5.0,12.0,40,0.00,,,0.05,WeatherCatV1.02B3,2013-03-24 23:22:00,
2013-03-24 18:27:00,53.3,29.6,29.99,NW,323,3.0,11.0,40,0.00,,,0.05,WeatherCatV1.02B3,2013-03-24 23:27:00,
2013-03-24 18:32:00,53.0,29.3,30.00,NNE,15,14.0,14.0,40,0.00,,,0.05,WeatherCatV1.02B3,2013-03-24 23:32:00,
2013-03-24 18:37:00,52.8,29.8,30.00,North,0,13.0,17.0,41,0.00,,,0.05,WeatherCatV1.02B3,2013-03-24 23:37:00,
2013-03-24 18:42:00,52.6,29.0,30.00,NNW,342,10.0,16.0,40,0.00,,,0.05,WeatherCatV1.02B3,2013-03-24 23:42:00,
2013-03-24 18:47:00,52.3,29.3,30.01,NNE,16,4.0,15.0,41,0.00,,,0.05,WeatherCatV1.02B3,2013-03-24 23:47:00,
2013-03-24 18:52:00,52.0,28.4,30.01,NNE,31,8.0,15.0,40,0.00,,,0.05,WeatherCatV1.02B3,2013-03-24 23:52:00,
2013-03-24 18:57:00,51.8,29.4,30.01,NNW,346,6.0,15.0,42,0.00,,,0.05,WeatherCatV1.02B3,2013-03-24 23:57:00,
2013-03-24 19:02:00,51.6,29.3,30.01,NNE,13,13.0,15.0,42,0.00,,,0.05,WeatherCatV1.02B3,2013-03-25 00:02:00,
2013-03-24 19:07:00,51.4,29.1,30.01,North,355,12.0,12.0,42,0.00,,,0.05,WeatherCatV1.02B3,2013-03-25 00:07:00,
2013-03-24 19:12:00,51.2,29.5,30.01,North,11,3.0,13.0,43,0.00,,,0.05,WeatherCatV1.02B3,2013-03-25 00:12:00,
2013-03-24 19:17:00,51.0,29.3,30.01,North,5,5.0,15.0,43,0.00,,,0.05,WeatherCatV1.02B3,2013-03-25 00:17:00,
2013-03-24 19:22:00,50.8,29.1,30.01,NNW,336,4.0,13.0,43,0.00,,,0.05,WeatherCatV1.02B3,2013-03-25 00:22:00,
2013-03-24 19:27:00,50.6,27.8,30.01,NW,325,10.0,16.0,41,0.00,,,0.05,WeatherCatV1.02B3,2013-03-25 00:27:00,
2013-03-24 19:32:00,50.4,28.2,30.02,North,0,5.0,14.0,42,0.00,,,0.05,WeatherCatV1.02B3,2013-03-25 00:32:00,
2013-03-24 19:37:00,50.2,28.0,30.02,North,5,2.0,10.0,42,0.00,,,0.05,WeatherCatV1.02B3,2013-03-25 00:37:00,
2013-03-24 19:42:00,50.0,28.4,30.02,NNE,16,5.0,13.0,43,0.00,,,0.05,WeatherCatV1.02B3,2013-03-25 00:42:00,
2013-03-24 19:47:00,49.8,27.1,30.03,NNE,29,5.0,12.0,41,0.00,,,0.05,WeatherCatV1.02B3,2013-03-25 00:47:00,
2013-03-24 19:52:00,49.6,28.0,30.03,NNE,25,4.0,12.0,43,0.00,,,0.05,WeatherCatV1.02B3,2013-03-25 00:52:00,
2013-03-24 19:57:00,49.4,27.9,30.03,NE,53,4.0,17.0,43,0.00,,,0.05,WeatherCatV1.02B3,2013-03-25 00:57:00,
2013-03-24 20:02:00,49.2,28.2,30.03,NNE,27,5.0,9.0,44,0.00,,,0.05,WeatherCatV1.02B3,2013-03-25 01:02:00,
2013-03-24 20:07:00,49.1,28.7,30.03,NE,34,4.0,11.0,45,0.00,,,0.05,WeatherCatV1.02B3,2013-03-25 01:07:00,
2013-03-24 20:12:00,49.0,28.6,30.03,North,11,3.0,11.0,45,0.00,,,0.05,WeatherCatV1.02B3,2013-03-25 01:12:00,
2013-03-24 20:17:00,48.8,27.9,30.04,North,5,15.0,15.0,44,0.00,,,0.05,WeatherCatV1.02B3,2013-03-25 01:17:00,
2013-03-24 20:22:00,48.7,27.2,30.04,North,355,6.0,12.0,43,0.00,,,0.05,WeatherCatV1.02B3,2013-03-25 01:22:00,
2013-03-24 20:27:00,48.6,27.1,30.04,NNW,347,6.0,13.0,43,0.00,,,0.05,WeatherCatV1.02B3,2013-03-25 01:27:00,
2013-03-24 20:32:00,48.5,27.0,30.04,NNE,22,4.0,10.0,43,0.00,,,0.05,WeatherCatV1.02B3,2013-03-25 01:32:00,
2013-03-24 20:37:00,48.4,26.9,30.04,NNE,15,2.0,10.0,43,0.00,,,0.05,WeatherCatV1.02B3,2013-03-25 01:37:00,
2013-03-24 20:42:00,48.3,28.0,30.04,NNE,22,5.0,7.0,45,0.00,,,0.05,WeatherCatV1.02B3,2013-03-25 01:42:00,
2013-03-24 20:47:00,48.1,27.8,30.05,North,355,5.0,12.0,45,0.00,,,0.05,WeatherCatV1.02B3,2013-03-25 01:47:00,
2013-03-24 20:52:00,47.9,27.0,30.05,NNE,13,5.0,11.0,44,0.00,,,0.05,WeatherCatV1.02B3,2013-03-25 01:52:00,
2013-03-24 20:57:00,47.8,26.4,30.05,NNW,342,3.0,10.0,43,0.00,,,0.05,WeatherCatV1.02B3,2013-03-25 01:57:00,
2013-03-24 21:02:00,47.7,26.9,30.06,North,5,5.0,18.0,44,0.00,,,0.05,WeatherCatV1.02B3,2013-03-25 02:02:00,
2013-03-24 21:07:00,47.7,26.9,30.06,NNW,338,6.0,17.0,44,0.00,,,0.05,WeatherCatV1.02B3,2013-03-25 02:07:00,
2013-03-24 21:12:00,47.6,27.3,30.06,NE,43,9.0,10.0,45,0.00,,,0.05,WeatherCatV1.02B3,2013-03-25 02:12:00,
2013-03-24 21:17:00,47.4,26.6,30.06,North,11,12.0,16.0,44,0.00,,,0.05,WeatherCatV1.02B3,2013-03-25 02:17:00,
2013-03-24 21:22:00,47.4,26.6,30.06,North,9,5.0,9.0,44,0.00,,,0.05,WeatherCatV1.02B3,2013-03-25 02:22:00,
2013-03-24 21:27:00,47.3,25.9,30.06,NW,317,9.0,9.0,43,0.00,,,0.05,WeatherCatV1.02B3,2013-03-25 02:27:00,
2013-03-24 21:32:00,47.1,26.3,30.07,North,355,3.0,17.0,44,0.00,,,0.05,WeatherCatV1.02B3,2013-03-25 02:32:00,
2013-03-24 21:37:00,47.0,26.8,30.07,NNE,19,5.0,6.0,45,0.00,,,0.05,WeatherCatV1.02B3,2013-03-25 02:37:00,
2013-03-24 21:42:00,46.9,26.1,30.07,NNE,15,5.0,9.0,44,0.00,,,0.05,WeatherCatV1.02B3,2013-03-25 02:42:00,
2013-03-24 21:47:00,46.7,26.5,30.08,North,5,4.0,10.0,45,0.00,,,0.05,WeatherCatV1.02B3,2013-03-25 02:47:00,
2013-03-24 21:52:00,46.5,26.8,30.08,North,5,5.0,10.0,46,0.00,,,0.05,WeatherCatV1.02B3,2013-03-25 02:52:00,
2013-03-24 21:57:00,46.4,26.2,30.08,NNE,21,4.0,9.0,45,0.00,,,0.05,WeatherCatV1.02B3,2013-03-25 02:57:00,
2013-03-24 22:02:00,46.3,26.7,30.09,NNW,340,6.0,11.0,46,0.00,,,0.05,WeatherCatV1.02B3,2013-03-25 03:02:00,
2013-03-24 22:07:00,46.1,26.0,30.09,NE,40,5.0,13.0,45,0.00,,,0.05,WeatherCatV1.02B3,2013-03-25 03:07:00,
2013-03-24 22:12:00,46.1,27.0,30.09,North,11,0.0,12.0,47,0.00,,,0.05,WeatherCatV1.02B3,2013-03-25 03:12:00,
2013-03-24 22:17:00,46.0,26.9,30.08,North,0,4.0,9.0,47,0.00,,,0.05,WeatherCatV1.02B3,2013-03-25 03:17:00,
2013-03-24 22:22:00,45.9,27.3,30.08,NNE,25,3.0,9.0,48,0.00,,,0.05,WeatherCatV1.02B3,2013-03-25 03:22:00,
2013-03-24 22:27:00,45.8,27.2,30.08,NNE,29,4.0,14.0,48,0.00,,,0.05,WeatherCatV1.02B3,2013-03-25 03:27:00,
2013-03-24 22:32:00,45.6,26.5,30.09,NNW,331,6.0,11.0,47,0.00,,,0.05,WeatherCatV1.02B3,2013-03-25 03:32:00,
2013-03-24 22:37:00,45.4,25.8,30.09,NNW,336,8.0,10.0,46,0.00,,,0.05,WeatherCatV1.02B3,2013-03-25 03:37:00,
2013-03-24 22:42:00,45.3,25.8,30.09,NNE,18,5.0,17.0,46,0.00,,,0.05,WeatherCatV1.02B3,2013-03-25 03:42:00,
2013-03-24 22:47:00,45.1,25.6,30.09,NNE,19,6.0,13.0,46,0.00,,,0.05,WeatherCatV1.02B3,2013-03-25 03:47:00,
2013-03-24 22:52:00,45.0,26.0,30.09,NNE,26,5.0,15.0,47,0.00,,,0.05,WeatherCatV1.02B3,2013-03-25 03:52:00,
2013-03-24 22:57:00,44.7,25.7,30.09,North,351,14.0,14.0,47,0.00,,,0.05,WeatherCatV1.02B3,2013-03-25 03:57:00,
2013-03-24 23:00:00,44.6,25.6,30.10,NE,36,10.0,12.0,47,0.00,,,0.05,WeatherCatV1.02B3,2013-03-25 04:00:00,
2013-03-24 23:01:00,44.6,25.6,30.10,NNE,15,2.0,11.0,47,0.00,,,0.05,WeatherCatV1.02B3,2013-03-25 04:01:00,
2013-03-24 23:06:00,44.5,27.5,30.10,NE,40,8.0,10.0,51,0.00,,,0.05,WeatherCatV1.02B3,2013-03-25 04:06:00,
2013-03-24 23:11:00,44.3,26.8,30.10,NNW,343,4.0,7.0,50,0.00,,,0.05,WeatherCatV1.02B3,2013-03-25 04:11:00,
2013-03-24 23:16:00,44.1,26.7,30.10,North,5,5.0,11.0,50,0.00,,,0.05,WeatherCatV1.02B3,2013-03-25 04:16:00,
2013-03-24 23:21:00,44.0,26.6,30.10,North,11,4.0,11.0,50,0.00,,,0.05,WeatherCatV1.02B3,2013-03-25 04:21:00,
2013-03-24 23:26:00,43.8,26.9,30.10,NNE,33,5.0,12.0,51,0.00,,,0.05,WeatherCatV1.02B3,2013-03-25 04:26:00,
2013-03-24 23:31:00,43.7,27.2,30.11,NNW,343,2.0,6.0,52,0.00,,,0.05,WeatherCatV1.02B3,2013-03-25 04:31:00,
2013-03-24 23:36:00,43.6,27.1,30.11,NE,42,5.0,13.0,52,0.00,,,0.05,WeatherCatV1.02B3,2013-03-25 04:36:00,
2013-03-24 23:41:00,43.5,27.1,30.11,North,11,2.0,10.0,52,0.00,,,0.05,WeatherCatV1.02B3,2013-03-25 04:41:00,
2013-03-24 23:46:00,43.3,26.9,30.12,North,0,3.0,12.0,52,0.00,,,0.05,WeatherCatV1.02B3,2013-03-25 04:46:00,
2013-03-24 23:51:00,43.2,26.8,30.12,NNE,18,2.0,11.0,52,0.00,,,0.05,WeatherCatV1.02B3,2013-03-25 04:51:00,
2013-03-24 23:56:00,43.1,26.7,30.12,North,9,1.0,12.0,52,0.00,,,0.05,WeatherCatV1.02B3,2013-03-25 04:56:00,